sensor_id;sensor_type;location;lat;lon;timestamp;P1;durP1;ratioP1;P2;durP2;ratioP2
17852;SDS011;9052;53.494;14.376;2022-10-16T00:01:42;18.10;;;13.10;;
17852;SDS011;9052;53.494;14.376;2022-10-16T00:04:09;13.20;;;11.80;;
17852;SDS011;9052;53.494;14.376;2022-10-16T00:06:36;14.57;;;11.97;;
17852;SDS011;9052;53.494;14.376;2022-10-16T00:09:03;14.00;;;12.30;;
17852;SDS011;9052;53.494;14.376;2022-10-16T00:11:31;12.90;;;10.73;;
17852;SDS011;9052;53.494;14.376;2022-10-16T00:14:03;14.00;;;10.93;;
17852;SDS011;9052;53.494;14.376;2022-10-16T00:16:31;13.10;;;11.00;;
17852;SDS011;9052;53.494;14.376;2022-10-16T00:18:59;13.40;;;12.00;;
17852;SDS011;9052;53.494;14.376;2022-10-16T00:21:27;16.50;;;11.50;;
17852;SDS011;9052;53.494;14.376;2022-10-16T00:23:56;16.33;;;12.00;;
17852;SDS011;9052;53.494;14.376;2022-10-16T00:26:25;13.80;;;11.37;;
17852;SDS011;9052;53.494;14.376;2022-10-16T00:28:52;15.90;;;11.57;;
17852;SDS011;9052;53.494;14.376;2022-10-16T00:31:21;12.30;;;10.70;;
17852;SDS011;9052;53.494;14.376;2022-10-16T00:33:49;11.70;;;10.10;;
17852;SDS011;9052;53.494;14.376;2022-10-16T00:36:17;12.13;;;10.93;;
17852;SDS011;9052;53.494;14.376;2022-10-16T00:38:45;13.43;;;10.90;;
17852;SDS011;9052;53.494;14.376;2022-10-16T00:41:12;13.80;;;12.00;;
17852;SDS011;9052;53.494;14.376;2022-10-16T00:43:41;12.30;;;10.53;;
17852;SDS011;9052;53.494;14.376;2022-10-16T00:46:10;35.27;;;10.60;;
17852;SDS011;9052;53.494;14.376;2022-10-16T00:48:41;9.97;;;8.90;;
17852;SDS011;9052;53.494;14.376;2022-10-16T00:51:09;9.53;;;8.47;;
17852;SDS011;9052;53.494;14.376;2022-10-16T00:53:36;11.20;;;10.07;;
17852;SDS011;9052;53.494;14.376;2022-10-16T00:56:03;10.93;;;9.80;;
17852;SDS011;9052;53.494;14.376;2022-10-16T00:58:31;10.90;;;9.90;;
17852;SDS011;9052;53.494;14.376;2022-10-16T01:00:58;11.57;;;9.20;;
17852;SDS011;9052;53.494;14.376;2022-10-16T01:03:26;10.27;;;9.03;;
17852;SDS011;9052;53.494;14.376;2022-10-16T01:05:57;21.93;;;9.50;;
17852;SDS011;9052;53.494;14.376;2022-10-16T01:08:34;9.87;;;8.97;;
17852;SDS011;9052;53.494;14.376;2022-10-16T01:11:07;11.57;;;9.60;;
17852;SDS011;9052;53.494;14.376;2022-10-16T01:13:40;9.70;;;8.47;;
17852;SDS011;9052;53.494;14.376;2022-10-16T01:16:11;10.00;;;9.00;;
17852;SDS011;9052;53.494;14.376;2022-10-16T01:18:42;14.67;;;9.47;;
17852;SDS011;9052;53.494;14.376;2022-10-16T01:21:12;9.87;;;8.87;;
17852;SDS011;9052;53.494;14.376;2022-10-16T01:23:43;10.40;;;9.10;;
17852;SDS011;9052;53.494;14.376;2022-10-16T01:26:23;9.17;;;7.70;;
17852;SDS011;9052;53.494;14.376;2022-10-16T01:28:59;9.57;;;8.67;;
17852;SDS011;9052;53.494;14.376;2022-10-16T01:31:32;14.40;;;9.10;;
17852;SDS011;9052;53.494;14.376;2022-10-16T01:34:02;8.37;;;7.50;;
17852;SDS011;9052;53.494;14.376;2022-10-16T01:36:33;13.50;;;8.70;;
17852;SDS011;9052;53.494;14.376;2022-10-16T01:39:03;9.47;;;8.47;;
17852;SDS011;9052;53.494;14.376;2022-10-16T01:41:33;9.20;;;7.80;;
17852;SDS011;9052;53.494;14.376;2022-10-16T01:44:04;10.10;;;7.40;;
17852;SDS011;9052;53.494;14.376;2022-10-16T01:46:32;8.83;;;8.00;;
17852;SDS011;9052;53.494;14.376;2022-10-16T01:49:02;11.37;;;6.50;;
17852;SDS011;9052;53.494;14.376;2022-10-16T01:51:29;7.77;;;6.77;;
17852;SDS011;9052;53.494;14.376;2022-10-16T01:53:57;8.37;;;7.57;;
17852;SDS011;9052;53.494;14.376;2022-10-16T01:56:26;8.00;;;6.33;;
17852;SDS011;9052;53.494;14.376;2022-10-16T01:58:54;8.87;;;7.40;;
17852;SDS011;9052;53.494;14.376;2022-10-16T02:01:24;8.70;;;7.80;;
17852;SDS011;9052;53.494;14.376;2022-10-16T02:03:54;7.93;;;6.67;;
17852;SDS011;9052;53.494;14.376;2022-10-16T02:06:23;7.13;;;6.53;;
17852;SDS011;9052;53.494;14.376;2022-10-16T02:08:50;7.77;;;7.17;;
17852;SDS011;9052;53.494;14.376;2022-10-16T02:11:17;7.20;;;6.50;;
17852;SDS011;9052;53.494;14.376;2022-10-16T02:13:45;5.93;;;5.43;;
17852;SDS011;9052;53.494;14.376;2022-10-16T02:16:13;5.83;;;5.33;;
17852;SDS011;9052;53.494;14.376;2022-10-16T02:18:42;6.63;;;6.03;;
17852;SDS011;9052;53.494;14.376;2022-10-16T02:21:11;6.30;;;5.80;;
17852;SDS011;9052;53.494;14.376;2022-10-16T02:23:43;6.53;;;5.90;;
17852;SDS011;9052;53.494;14.376;2022-10-16T02:26:13;5.13;;;4.77;;
17852;SDS011;9052;53.494;14.376;2022-10-16T02:28:43;12.30;;;5.90;;
17852;SDS011;9052;53.494;14.376;2022-10-16T02:31:12;6.50;;;5.90;;
17852;SDS011;9052;53.494;14.376;2022-10-16T02:33:46;6.17;;;5.57;;
17852;SDS011;9052;53.494;14.376;2022-10-16T02:36:13;5.43;;;5.03;;
17852;SDS011;9052;53.494;14.376;2022-10-16T02:38:40;6.30;;;4.90;;
17852;SDS011;9052;53.494;14.376;2022-10-16T02:41:08;6.80;;;6.20;;
17852;SDS011;9052;53.494;14.376;2022-10-16T02:43:35;5.80;;;5.20;;
17852;SDS011;9052;53.494;14.376;2022-10-16T02:46:02;6.93;;;6.00;;
17852;SDS011;9052;53.494;14.376;2022-10-16T02:48:29;7.10;;;6.20;;
17852;SDS011;9052;53.494;14.376;2022-10-16T02:50:57;6.10;;;5.50;;
17852;SDS011;9052;53.494;14.376;2022-10-16T02:53:24;10.97;;;6.80;;
17852;SDS011;9052;53.494;14.376;2022-10-16T02:55:51;6.60;;;5.93;;
17852;SDS011;9052;53.494;14.376;2022-10-16T02:58:18;5.70;;;5.20;;
17852;SDS011;9052;53.494;14.376;2022-10-16T03:00:45;6.67;;;6.17;;
17852;SDS011;9052;53.494;14.376;2022-10-16T03:03:11;8.23;;;6.83;;
17852;SDS011;9052;53.494;14.376;2022-10-16T03:05:38;6.50;;;5.60;;
17852;SDS011;9052;53.494;14.376;2022-10-16T03:08:07;6.70;;;6.10;;
17852;SDS011;9052;53.494;14.376;2022-10-16T03:10:34;7.37;;;6.77;;
17852;SDS011;9052;53.494;14.376;2022-10-16T03:13:01;8.50;;;7.20;;
17852;SDS011;9052;53.494;14.376;2022-10-16T03:15:27;6.43;;;5.93;;
17852;SDS011;9052;53.494;14.376;2022-10-16T03:17:55;9.70;;;6.20;;
17852;SDS011;9052;53.494;14.376;2022-10-16T03:20:23;7.43;;;6.10;;
17852;SDS011;9052;53.494;14.376;2022-10-16T03:22:50;9.90;;;6.40;;
17852;SDS011;9052;53.494;14.376;2022-10-16T03:25:19;9.43;;;5.60;;
17852;SDS011;9052;53.494;14.376;2022-10-16T03:27:46;6.20;;;5.70;;
17852;SDS011;9052;53.494;14.376;2022-10-16T03:30:12;7.83;;;5.80;;
17852;SDS011;9052;53.494;14.376;2022-10-16T03:32:40;6.77;;;5.50;;
17852;SDS011;9052;53.494;14.376;2022-10-16T03:35:07;5.53;;;5.13;;
17852;SDS011;9052;53.494;14.376;2022-10-16T03:37:34;5.83;;;5.33;;
17852;SDS011;9052;53.494;14.376;2022-10-16T03:40:02;6.47;;;5.90;;
17852;SDS011;9052;53.494;14.376;2022-10-16T03:42:31;6.20;;;5.70;;
17852;SDS011;9052;53.494;14.376;2022-10-16T03:44:58;6.63;;;6.03;;
17852;SDS011;9052;53.494;14.376;2022-10-16T03:47:25;6.60;;;6.10;;
17852;SDS011;9052;53.494;14.376;2022-10-16T03:49:52;5.80;;;5.30;;
17852;SDS011;9052;53.494;14.376;2022-10-16T03:52:19;17.40;;;5.40;;
17852;SDS011;9052;53.494;14.376;2022-10-16T03:54:45;4.80;;;4.50;;
17852;SDS011;9052;53.494;14.376;2022-10-16T03:57:12;5.17;;;4.80;;
17852;SDS011;9052;53.494;14.376;2022-10-16T03:59:41;11.83;;;5.77;;
17852;SDS011;9052;53.494;14.376;2022-10-16T04:02:08;7.57;;;5.93;;
17852;SDS011;9052;53.494;14.376;2022-10-16T04:04:34;5.10;;;4.70;;
17852;SDS011;9052;53.494;14.376;2022-10-16T04:07:01;6.20;;;5.60;;
17852;SDS011;9052;53.494;14.376;2022-10-16T04:09:28;6.07;;;5.60;;
17852;SDS011;9052;53.494;14.376;2022-10-16T04:11:55;17.37;;;5.57;;
17852;SDS011;9052;53.494;14.376;2022-10-16T04:14:23;8.27;;;5.13;;
17852;SDS011;9052;53.494;14.376;2022-10-16T04:16:51;8.57;;;5.60;;
17852;SDS011;9052;53.494;14.376;2022-10-16T04:19:18;5.83;;;5.33;;
17852;SDS011;9052;53.494;14.376;2022-10-16T04:21:45;6.43;;;5.70;;
17852;SDS011;9052;53.494;14.376;2022-10-16T04:24:12;8.90;;;5.10;;
17852;SDS011;9052;53.494;14.376;2022-10-16T04:26:39;9.03;;;5.20;;
17852;SDS011;9052;53.494;14.376;2022-10-16T04:29:05;4.70;;;4.20;;
17852;SDS011;9052;53.494;14.376;2022-10-16T04:31:32;10.60;;;5.43;;
17852;SDS011;9052;53.494;14.376;2022-10-16T04:34:01;6.00;;;5.50;;
17852;SDS011;9052;53.494;14.376;2022-10-16T04:36:28;5.97;;;5.47;;
17852;SDS011;9052;53.494;14.376;2022-10-16T04:38:55;7.03;;;4.60;;
17852;SDS011;9052;53.494;14.376;2022-10-16T04:41:22;5.57;;;4.87;;
17852;SDS011;9052;53.494;14.376;2022-10-16T04:43:49;6.70;;;5.27;;
17852;SDS011;9052;53.494;14.376;2022-10-16T04:46:15;5.70;;;5.20;;
17852;SDS011;9052;53.494;14.376;2022-10-16T04:48:42;5.33;;;5.00;;
17852;SDS011;9052;53.494;14.376;2022-10-16T04:51:11;13.93;;;5.50;;
17852;SDS011;9052;53.494;14.376;2022-10-16T04:53:38;7.00;;;4.83;;
17852;SDS011;9052;53.494;14.376;2022-10-16T04:56:06;6.83;;;5.40;;
17852;SDS011;9052;53.494;14.376;2022-10-16T04:58:33;10.60;;;5.10;;
17852;SDS011;9052;53.494;14.376;2022-10-16T05:01:00;5.40;;;4.33;;
17852;SDS011;9052;53.494;14.376;2022-10-16T05:03:27;6.27;;;5.77;;
17852;SDS011;9052;53.494;14.376;2022-10-16T05:05:54;4.77;;;4.43;;
17852;SDS011;9052;53.494;14.376;2022-10-16T05:08:23;8.17;;;4.53;;
17852;SDS011;9052;53.494;14.376;2022-10-16T05:10:50;6.50;;;5.30;;
17852;SDS011;9052;53.494;14.376;2022-10-16T05:13:17;5.80;;;5.33;;
17852;SDS011;9052;53.494;14.376;2022-10-16T05:15:47;5.33;;;4.33;;
17852;SDS011;9052;53.494;14.376;2022-10-16T05:18:14;5.40;;;5.00;;
17852;SDS011;9052;53.494;14.376;2022-10-16T05:20:41;5.90;;;5.37;;
17852;SDS011;9052;53.494;14.376;2022-10-16T05:23:08;8.63;;;5.87;;
17852;SDS011;9052;53.494;14.376;2022-10-16T05:25:38;14.03;;;6.90;;
17852;SDS011;9052;53.494;14.376;2022-10-16T05:28:06;6.60;;;5.87;;
17852;SDS011;9052;53.494;14.376;2022-10-16T05:30:33;5.90;;;5.40;;
17852;SDS011;9052;53.494;14.376;2022-10-16T05:33:00;6.90;;;6.10;;
17852;SDS011;9052;53.494;14.376;2022-10-16T05:35:27;6.03;;;5.50;;
17852;SDS011;9052;53.494;14.376;2022-10-16T05:37:54;18.13;;;7.13;;
17852;SDS011;9052;53.494;14.376;2022-10-16T05:40:21;5.47;;;5.07;;
17852;SDS011;9052;53.494;14.376;2022-10-16T05:42:49;5.60;;;5.07;;
17852;SDS011;9052;53.494;14.376;2022-10-16T05:45:16;6.33;;;5.10;;
17852;SDS011;9052;53.494;14.376;2022-10-16T05:47:43;6.47;;;4.90;;
17852;SDS011;9052;53.494;14.376;2022-10-16T05:50:10;6.80;;;5.67;;
17852;SDS011;9052;53.494;14.376;2022-10-16T05:52:37;5.47;;;5.07;;
17852;SDS011;9052;53.494;14.376;2022-10-16T05:55:04;6.43;;;5.83;;
17852;SDS011;9052;53.494;14.376;2022-10-16T05:57:31;7.87;;;5.70;;
17852;SDS011;9052;53.494;14.376;2022-10-16T06:00:00;9.77;;;5.57;;
17852;SDS011;9052;53.494;14.376;2022-10-16T06:02:29;5.57;;;5.07;;
17852;SDS011;9052;53.494;14.376;2022-10-16T06:04:56;9.30;;;5.90;;
17852;SDS011;9052;53.494;14.376;2022-10-16T06:07:23;5.53;;;5.03;;
17852;SDS011;9052;53.494;14.376;2022-10-16T06:09:50;6.67;;;5.70;;
17852;SDS011;9052;53.494;14.376;2022-10-16T06:12:18;6.13;;;5.53;;
17852;SDS011;9052;53.494;14.376;2022-10-16T06:14:45;5.63;;;5.13;;
17852;SDS011;9052;53.494;14.376;2022-10-16T06:17:14;9.87;;;5.00;;
17852;SDS011;9052;53.494;14.376;2022-10-16T06:19:41;5.90;;;5.40;;
17852;SDS011;9052;53.494;14.376;2022-10-16T06:22:08;5.27;;;4.77;;
17852;SDS011;9052;53.494;14.376;2022-10-16T06:24:35;5.80;;;5.20;;
17852;SDS011;9052;53.494;14.376;2022-10-16T06:27:02;5.90;;;5.40;;
17852;SDS011;9052;53.494;14.376;2022-10-16T06:29:29;4.80;;;4.40;;
17852;SDS011;9052;53.494;14.376;2022-10-16T06:31:56;6.90;;;5.60;;
17852;SDS011;9052;53.494;14.376;2022-10-16T06:34:25;5.60;;;4.87;;
17852;SDS011;9052;53.494;14.376;2022-10-16T06:36:51;5.33;;;4.30;;
17852;SDS011;9052;53.494;14.376;2022-10-16T06:39:18;8.40;;;4.20;;
17852;SDS011;9052;53.494;14.376;2022-10-16T06:41:45;6.50;;;4.57;;
17852;SDS011;9052;53.494;14.376;2022-10-16T06:44:12;4.90;;;4.03;;
17852;SDS011;9052;53.494;14.376;2022-10-16T06:46:39;5.17;;;4.67;;
17852;SDS011;9052;53.494;14.376;2022-10-16T06:49:06;11.30;;;4.30;;
17852;SDS011;9052;53.494;14.376;2022-10-16T06:51:34;4.80;;;4.17;;
17852;SDS011;9052;53.494;14.376;2022-10-16T06:54:06;3.83;;;3.20;;
17852;SDS011;9052;53.494;14.376;2022-10-16T06:56:33;4.97;;;4.50;;
17852;SDS011;9052;53.494;14.376;2022-10-16T06:59:00;4.03;;;3.73;;
17852;SDS011;9052;53.494;14.376;2022-10-16T07:01:27;10.47;;;3.50;;
17852;SDS011;9052;53.494;14.376;2022-10-16T07:03:55;3.27;;;3.07;;
17852;SDS011;9052;53.494;14.376;2022-10-16T07:06:23;3.97;;;3.67;;
17852;SDS011;9052;53.494;14.376;2022-10-16T07:08:52;3.93;;;3.50;;
17852;SDS011;9052;53.494;14.376;2022-10-16T07:11:20;3.23;;;3.03;;
17852;SDS011;9052;53.494;14.376;2022-10-16T07:13:48;4.00;;;3.70;;
17852;SDS011;9052;53.494;14.376;2022-10-16T07:16:16;3.70;;;3.40;;
17852;SDS011;9052;53.494;14.376;2022-10-16T07:18:45;4.07;;;3.70;;
17852;SDS011;9052;53.494;14.376;2022-10-16T07:21:14;3.77;;;2.97;;
17852;SDS011;9052;53.494;14.376;2022-10-16T07:23:42;2.80;;;2.43;;
17852;SDS011;9052;53.494;14.376;2022-10-16T07:26:10;7.03;;;2.63;;
17852;SDS011;9052;53.494;14.376;2022-10-16T07:28:38;3.10;;;2.90;;
17852;SDS011;9052;53.494;14.376;2022-10-16T07:31:06;4.13;;;2.70;;
17852;SDS011;9052;53.494;14.376;2022-10-16T07:33:36;4.57;;;2.57;;
17852;SDS011;9052;53.494;14.376;2022-10-16T07:36:04;5.90;;;2.90;;
17852;SDS011;9052;53.494;14.376;2022-10-16T07:38:31;7.10;;;3.00;;
17852;SDS011;9052;53.494;14.376;2022-10-16T07:40:58;14.27;;;3.17;;
17852;SDS011;9052;53.494;14.376;2022-10-16T07:43:27;3.77;;;3.47;;
17852;SDS011;9052;53.494;14.376;2022-10-16T07:45:54;6.20;;;3.17;;
17852;SDS011;9052;53.494;14.376;2022-10-16T07:48:22;4.93;;;3.23;;
17852;SDS011;9052;53.494;14.376;2022-10-16T07:50:50;4.63;;;3.30;;
17852;SDS011;9052;53.494;14.376;2022-10-16T07:53:17;3.17;;;2.97;;
17852;SDS011;9052;53.494;14.376;2022-10-16T07:55:44;4.90;;;3.43;;
17852;SDS011;9052;53.494;14.376;2022-10-16T07:58:11;3.00;;;2.80;;
17852;SDS011;9052;53.494;14.376;2022-10-16T08:00:41;2.97;;;2.70;;
17852;SDS011;9052;53.494;14.376;2022-10-16T08:03:08;7.17;;;2.80;;
17852;SDS011;9052;53.494;14.376;2022-10-16T08:05:35;3.90;;;2.30;;
17852;SDS011;9052;53.494;14.376;2022-10-16T08:08:02;4.07;;;1.97;;
17852;SDS011;9052;53.494;14.376;2022-10-16T08:10:29;1.53;;;1.43;;
17852;SDS011;9052;53.494;14.376;2022-10-16T08:12:56;1.20;;;1.10;;
17852;SDS011;9052;53.494;14.376;2022-10-16T08:15:23;2.23;;;1.37;;
17852;SDS011;9052;53.494;14.376;2022-10-16T08:17:55;5.97;;;1.80;;
17852;SDS011;9052;53.494;14.376;2022-10-16T08:20:23;2.50;;;1.90;;
17852;SDS011;9052;53.494;14.376;2022-10-16T08:22:51;13.50;;;1.63;;
17852;SDS011;9052;53.494;14.376;2022-10-16T08:25:20;1.13;;;1.13;;
17852;SDS011;9052;53.494;14.376;2022-10-16T08:27:47;3.10;;;1.47;;
17852;SDS011;9052;53.494;14.376;2022-10-16T08:30:15;4.53;;;1.83;;
17852;SDS011;9052;53.494;14.376;2022-10-16T08:32:43;5.70;;;1.60;;
17852;SDS011;9052;53.494;14.376;2022-10-16T08:35:11;1.87;;;1.63;;
17852;SDS011;9052;53.494;14.376;2022-10-16T08:37:40;2.83;;;1.03;;
17852;SDS011;9052;53.494;14.376;2022-10-16T08:40:11;1.57;;;1.10;;
17852;SDS011;9052;53.494;14.376;2022-10-16T08:42:46;2.80;;;1.10;;
17852;SDS011;9052;53.494;14.376;2022-10-16T08:45:23;2.60;;;1.53;;
17852;SDS011;9052;53.494;14.376;2022-10-16T08:47:58;4.37;;;1.53;;
17852;SDS011;9052;53.494;14.376;2022-10-16T08:50:33;3.03;;;1.27;;
17852;SDS011;9052;53.494;14.376;2022-10-16T08:53:03;3.93;;;1.73;;
17852;SDS011;9052;53.494;14.376;2022-10-16T08:55:32;4.37;;;1.23;;
17852;SDS011;9052;53.494;14.376;2022-10-16T08:58:01;5.57;;;1.60;;
17852;SDS011;9052;53.494;14.376;2022-10-16T09:00:28;2.20;;;1.17;;
17852;SDS011;9052;53.494;14.376;2022-10-16T09:02:59;3.03;;;1.67;;
17852;SDS011;9052;53.494;14.376;2022-10-16T09:05:41;1.83;;;1.20;;
17852;SDS011;9052;53.494;14.376;2022-10-16T09:08:26;1.37;;;1.00;;
17852;SDS011;9052;53.494;14.376;2022-10-16T09:10:58;2.97;;;1.30;;
17852;SDS011;9052;53.494;14.376;2022-10-16T09:13:28;2.00;;;0.97;;
17852;SDS011;9052;53.494;14.376;2022-10-16T09:15:59;8.10;;;1.50;;
17852;SDS011;9052;53.494;14.376;2022-10-16T09:18:34;5.03;;;1.70;;
17852;SDS011;9052;53.494;14.376;2022-10-16T09:21:09;2.50;;;2.10;;
17852;SDS011;9052;53.494;14.376;2022-10-16T09:23:40;4.93;;;1.57;;
17852;SDS011;9052;53.494;14.376;2022-10-16T09:26:09;1.20;;;1.10;;
17852;SDS011;9052;53.494;14.376;2022-10-16T09:28:38;1.40;;;1.30;;
17852;SDS011;9052;53.494;14.376;2022-10-16T09:31:05;4.10;;;1.80;;
17852;SDS011;9052;53.494;14.376;2022-10-16T09:33:33;1.57;;;1.23;;
17852;SDS011;9052;53.494;14.376;2022-10-16T09:36:03;8.53;;;1.60;;
17852;SDS011;9052;53.494;14.376;2022-10-16T09:38:33;3.53;;;1.57;;
17852;SDS011;9052;53.494;14.376;2022-10-16T09:41:02;2.00;;;0.97;;
17852;SDS011;9052;53.494;14.376;2022-10-16T09:43:32;5.67;;;1.30;;
17852;SDS011;9052;53.494;14.376;2022-10-16T09:46:02;7.30;;;1.50;;
17852;SDS011;9052;53.494;14.376;2022-10-16T09:48:31;3.37;;;0.80;;
17852;SDS011;9052;53.494;14.376;2022-10-16T09:51:02;6.43;;;1.33;;
17852;SDS011;9052;53.494;14.376;2022-10-16T09:53:40;3.80;;;1.00;;
17852;SDS011;9052;53.494;14.376;2022-10-16T09:56:09;3.87;;;1.40;;
17852;SDS011;9052;53.494;14.376;2022-10-16T09:58:41;6.23;;;1.40;;
17852;SDS011;9052;53.494;14.376;2022-10-16T10:01:11;4.63;;;1.47;;
17852;SDS011;9052;53.494;14.376;2022-10-16T10:03:40;5.33;;;1.47;;
17852;SDS011;9052;53.494;14.376;2022-10-16T10:06:16;12.47;;;1.37;;
17852;SDS011;9052;53.494;14.376;2022-10-16T10:08:55;1.20;;;1.10;;
17852;SDS011;9052;53.494;14.376;2022-10-16T10:14:20;4.97;;;1.50;;
17852;SDS011;9052;53.494;14.376;2022-10-16T10:16:49;4.77;;;1.70;;
17852;SDS011;9052;53.494;14.376;2022-10-16T10:19:17;6.00;;;1.60;;
17852;SDS011;9052;53.494;14.376;2022-10-16T10:21:45;2.93;;;1.33;;
17852;SDS011;9052;53.494;14.376;2022-10-16T10:24:14;3.93;;;1.77;;
17852;SDS011;9052;53.494;14.376;2022-10-16T10:26:47;6.70;;;1.77;;
17852;SDS011;9052;53.494;14.376;2022-10-16T10:29:21;2.10;;;0.87;;
17852;SDS011;9052;53.494;14.376;2022-10-16T10:31:53;3.13;;;1.40;;
17852;SDS011;9052;53.494;14.376;2022-10-16T10:34:38;2.97;;;1.40;;
17852;SDS011;9052;53.494;14.376;2022-10-16T10:37:10;4.10;;;1.23;;
17852;SDS011;9052;53.494;14.376;2022-10-16T10:39:45;14.03;;;1.37;;
17852;SDS011;9052;53.494;14.376;2022-10-16T10:42:18;6.63;;;1.17;;
17852;SDS011;9052;53.494;14.376;2022-10-16T10:45:03;1.93;;;1.13;;
17852;SDS011;9052;53.494;14.376;2022-10-16T10:47:47;5.60;;;1.37;;
17852;SDS011;9052;53.494;14.376;2022-10-16T10:50:22;3.70;;;1.07;;
17852;SDS011;9052;53.494;14.376;2022-10-16T10:52:54;3.37;;;1.20;;
17852;SDS011;9052;53.494;14.376;2022-10-16T10:55:28;3.73;;;1.23;;
17852;SDS011;9052;53.494;14.376;2022-10-16T10:58:05;2.90;;;1.60;;
17852;SDS011;9052;53.494;14.376;2022-10-16T11:00:50;2.63;;;1.60;;
17852;SDS011;9052;53.494;14.376;2022-10-16T11:03:25;3.40;;;1.37;;
17852;SDS011;9052;53.494;14.376;2022-10-16T11:06:10;4.63;;;1.57;;
17852;SDS011;9052;53.494;14.376;2022-10-16T11:08:39;3.93;;;1.67;;
17852;SDS011;9052;53.494;14.376;2022-10-16T11:11:10;3.20;;;1.53;;
17852;SDS011;9052;53.494;14.376;2022-10-16T11:13:42;7.93;;;1.10;;
17852;SDS011;9052;53.494;14.376;2022-10-16T11:16:15;4.43;;;1.40;;
17852;SDS011;9052;53.494;14.376;2022-10-16T11:18:46;4.03;;;1.20;;
17852;SDS011;9052;53.494;14.376;2022-10-16T11:21:17;1.90;;;1.53;;
17852;SDS011;9052;53.494;14.376;2022-10-16T11:23:46;3.10;;;1.20;;
17852;SDS011;9052;53.494;14.376;2022-10-16T11:26:19;5.10;;;2.13;;
17852;SDS011;9052;53.494;14.376;2022-10-16T11:28:48;2.37;;;1.53;;
17852;SDS011;9052;53.494;14.376;2022-10-16T11:31:17;4.30;;;1.10;;
17852;SDS011;9052;53.494;14.376;2022-10-16T11:33:49;2.80;;;1.33;;
17852;SDS011;9052;53.494;14.376;2022-10-16T11:36:19;3.33;;;1.40;;
17852;SDS011;9052;53.494;14.376;2022-10-16T11:38:51;3.47;;;1.03;;
17852;SDS011;9052;53.494;14.376;2022-10-16T11:41:23;3.57;;;1.20;;
17852;SDS011;9052;53.494;14.376;2022-10-16T11:43:56;7.13;;;1.50;;
17852;SDS011;9052;53.494;14.376;2022-10-16T11:46:30;3.27;;;1.30;;
17852;SDS011;9052;53.494;14.376;2022-10-16T11:49:00;1.63;;;1.13;;
17852;SDS011;9052;53.494;14.376;2022-10-16T11:51:31;3.97;;;1.60;;
17852;SDS011;9052;53.494;14.376;2022-10-16T11:54:02;6.63;;;1.50;;
17852;SDS011;9052;53.494;14.376;2022-10-16T11:56:35;5.43;;;1.53;;
17852;SDS011;9052;53.494;14.376;2022-10-16T11:59:05;3.70;;;1.20;;
17852;SDS011;9052;53.494;14.376;2022-10-16T12:01:36;3.03;;;1.20;;
17852;SDS011;9052;53.494;14.376;2022-10-16T12:04:12;2.87;;;1.00;;
17852;SDS011;9052;53.494;14.376;2022-10-16T12:06:43;9.13;;;1.40;;
17852;SDS011;9052;53.494;14.376;2022-10-16T12:09:13;8.07;;;1.80;;
17852;SDS011;9052;53.494;14.376;2022-10-16T12:11:53;11.43;;;1.53;;
17852;SDS011;9052;53.494;14.376;2022-10-16T12:14:35;1.53;;;1.43;;
17852;SDS011;9052;53.494;14.376;2022-10-16T12:19:57;2.80;;;1.60;;
17852;SDS011;9052;53.494;14.376;2022-10-16T12:22:27;3.60;;;1.80;;
17852;SDS011;9052;53.494;14.376;2022-10-16T12:24:56;4.20;;;1.30;;
17852;SDS011;9052;53.494;14.376;2022-10-16T12:27:26;6.57;;;2.33;;
17852;SDS011;9052;53.494;14.376;2022-10-16T12:29:55;3.93;;;1.37;;
17852;SDS011;9052;53.494;14.376;2022-10-16T12:32:25;1.87;;;1.57;;
17852;SDS011;9052;53.494;14.376;2022-10-16T12:34:55;3.87;;;1.77;;
17852;SDS011;9052;53.494;14.376;2022-10-16T12:37:23;3.57;;;1.10;;
17852;SDS011;9052;53.494;14.376;2022-10-16T12:39:52;4.53;;;1.40;;
17852;SDS011;9052;53.494;14.376;2022-10-16T12:42:22;4.53;;;1.30;;
17852;SDS011;9052;53.494;14.376;2022-10-16T12:44:58;1.20;;;1.10;;
17852;SDS011;9052;53.494;14.376;2022-10-16T12:47:35;2.00;;;1.23;;
17852;SDS011;9052;53.494;14.376;2022-10-16T12:50:22;7.43;;;1.60;;
17852;SDS011;9052;53.494;14.376;2022-10-16T12:52:51;2.50;;;1.00;;
17852;SDS011;9052;53.494;14.376;2022-10-16T12:55:18;2.00;;;1.10;;
17852;SDS011;9052;53.494;14.376;2022-10-16T12:57:50;7.93;;;1.20;;
17852;SDS011;9052;53.494;14.376;2022-10-16T13:00:28;7.40;;;1.40;;
17852;SDS011;9052;53.494;14.376;2022-10-16T13:03:08;4.53;;;1.50;;
17852;SDS011;9052;53.494;14.376;2022-10-16T13:06:03;2.70;;;1.17;;
17852;SDS011;9052;53.494;14.376;2022-10-16T13:08:43;3.87;;;1.33;;
17852;SDS011;9052;53.494;14.376;2022-10-16T13:11:20;4.33;;;0.87;;
17852;SDS011;9052;53.494;14.376;2022-10-16T13:13:57;1.50;;;0.80;;
17852;SDS011;9052;53.494;14.376;2022-10-16T13:16:33;4.80;;;1.20;;
17852;SDS011;9052;53.494;14.376;2022-10-16T13:19:11;2.17;;;0.60;;
17852;SDS011;9052;53.494;14.376;2022-10-16T13:21:44;1.53;;;0.90;;
17852;SDS011;9052;53.494;14.376;2022-10-16T13:24:19;1.10;;;0.90;;
17852;SDS011;9052;53.494;14.376;2022-10-16T13:26:53;2.23;;;1.17;;
17852;SDS011;9052;53.494;14.376;2022-10-16T13:29:24;0.70;;;0.60;;
17852;SDS011;9052;53.494;14.376;2022-10-16T13:31:56;1.33;;;1.03;;
17852;SDS011;9052;53.494;14.376;2022-10-16T13:34:24;5.03;;;1.40;;
17852;SDS011;9052;53.494;14.376;2022-10-16T13:36:51;9.40;;;1.00;;
17852;SDS011;9052;53.494;14.376;2022-10-16T13:39:21;0.80;;;0.57;;
17852;SDS011;9052;53.494;14.376;2022-10-16T13:41:57;2.83;;;0.93;;
17852;SDS011;9052;53.494;14.376;2022-10-16T13:44:29;0.90;;;0.73;;
17852;SDS011;9052;53.494;14.376;2022-10-16T13:47:00;3.10;;;0.97;;
17852;SDS011;9052;53.494;14.376;2022-10-16T13:49:27;1.90;;;1.20;;
17852;SDS011;9052;53.494;14.376;2022-10-16T13:51:55;2.27;;;0.97;;
17852;SDS011;9052;53.494;14.376;2022-10-16T13:54:22;1.83;;;1.00;;
17852;SDS011;9052;53.494;14.376;2022-10-16T13:56:49;0.90;;;0.60;;
17852;SDS011;9052;53.494;14.376;2022-10-16T13:59:23;7.90;;;1.47;;
17852;SDS011;9052;53.494;14.376;2022-10-16T14:01:53;1.37;;;1.10;;
17852;SDS011;9052;53.494;14.376;2022-10-16T14:04:21;0.70;;;0.63;;
17852;SDS011;9052;53.494;14.376;2022-10-16T14:06:49;0.93;;;0.83;;
17852;SDS011;9052;53.494;14.376;2022-10-16T14:09:20;1.60;;;1.20;;
17852;SDS011;9052;53.494;14.376;2022-10-16T14:11:49;0.90;;;0.77;;
17852;SDS011;9052;53.494;14.376;2022-10-16T14:14:17;2.23;;;1.13;;
17852;SDS011;9052;53.494;14.376;2022-10-16T14:16:44;1.77;;;0.83;;
17852;SDS011;9052;53.494;14.376;2022-10-16T14:19:17;1.10;;;1.00;;
17852;SDS011;9052;53.494;14.376;2022-10-16T14:21:47;1.10;;;0.60;;
17852;SDS011;9052;53.494;14.376;2022-10-16T14:24:21;0.90;;;0.83;;
17852;SDS011;9052;53.494;14.376;2022-10-16T14:26:52;4.20;;;1.07;;
17852;SDS011;9052;53.494;14.376;2022-10-16T14:29:21;1.90;;;0.70;;
17852;SDS011;9052;53.494;14.376;2022-10-16T14:31:56;0.87;;;0.60;;
17852;SDS011;9052;53.494;14.376;2022-10-16T14:34:29;0.60;;;0.50;;
17852;SDS011;9052;53.494;14.376;2022-10-16T14:36:58;6.00;;;0.80;;
17852;SDS011;9052;53.494;14.376;2022-10-16T14:39:29;1.20;;;1.00;;
17852;SDS011;9052;53.494;14.376;2022-10-16T14:41:57;1.33;;;1.10;;
17852;SDS011;9052;53.494;14.376;2022-10-16T14:44:26;4.97;;;1.10;;
17852;SDS011;9052;53.494;14.376;2022-10-16T14:46:56;3.03;;;0.70;;
17852;SDS011;9052;53.494;14.376;2022-10-16T14:49:24;2.33;;;0.73;;
17852;SDS011;9052;53.494;14.376;2022-10-16T14:51:54;3.90;;;0.97;;
17852;SDS011;9052;53.494;14.376;2022-10-16T14:54:22;2.17;;;0.90;;
17852;SDS011;9052;53.494;14.376;2022-10-16T14:56:49;1.33;;;0.70;;
17852;SDS011;9052;53.494;14.376;2022-10-16T14:59:19;4.23;;;1.10;;
17852;SDS011;9052;53.494;14.376;2022-10-16T15:01:48;4.30;;;1.07;;
17852;SDS011;9052;53.494;14.376;2022-10-16T15:04:15;2.67;;;0.83;;
17852;SDS011;9052;53.494;14.376;2022-10-16T15:06:43;1.37;;;0.70;;